Time;durP1;ratioP1;P1;durP2;ratioP2;P2;SDS_P1;SDS_P2;PMS_P1;PMS_P2;Temp;Humidity;BMP_temperature;BMP_pressure;BME280_temperature;BME280_humidity;BME280_pressure;Samples;Min_cycle;Max_cycle;Signal;HPM_P1;HPM_P2
2023/08/11 00:02:24;;;;;;;9.95;9.02;;;20.30;99.90;;;;;;5033747;28;20033;-82
2023/08/11 00:04:52;;;;;;;10.57;9.57;;;20.40;99.90;;;;;;5033497;28;20100;-82
2023/08/11 00:07:17;;;;;;;9.95;9.00;;;20.90;99.90;;;;;;5032872;28;20025;-82
2023/08/11 00:09:44;;;;;;;13.57;9.85;;;20.30;99.90;;;;;;5033174;28;20021;-83
2023/08/11 00:12:10;;;;;;;10.23;9.32;;;20.30;99.90;;;;;;5032642;28;20033;-82
2023/08/11 00:14:36;;;;;;;9.63;8.82;;;20.30;99.90;;;;;;5032935;28;20385;-82
2023/08/11 00:17:02;;;;;;;11.65;10.43;;;20.30;99.90;;;;;;5033439;28;20034;-82
2023/08/11 00:19:29;;;;;;;11.77;9.45;;;20.20;99.90;;;;;;5032781;28;20029;-82
2023/08/11 00:21:56;;;;;;;11.23;10.23;;;20.50;99.90;;;;;;5033265;28;20055;-82
2023/08/11 00:24:21;;;;;;;10.75;9.73;;;20.10;99.90;;;;;;5033198;28;20026;-82
2023/08/11 00:26:47;;;;;;;10.70;9.80;;;20.10;99.90;;;;;;5032164;28;20025;-81
2023/08/11 00:29:12;;;;;;;11.00;10.00;;;20.10;99.90;;;;;;5032653;28;20060;-82
2023/08/11 00:31:38;;;;;;;10.75;9.85;;;20.10;99.90;;;;;;5032638;28;20032;-82
2023/08/11 00:34:03;;;;;;;10.55;9.15;;;20.50;99.90;;;;;;5032343;28;20022;-82
2023/08/11 00:36:29;;;;;;;10.20;9.18;;;20.10;99.90;;;;;;5032701;28;20108;-82
2023/08/11 00:39:00;;;;;;;9.80;8.93;;;20.00;99.90;;;;;;5032697;28;20056;-82
2023/08/11 00:41:26;;;;;;;10.32;9.32;;;19.90;99.90;;;;;;5032371;28;20358;-82
2023/08/11 00:43:51;;;;;;;9.85;9.05;;;20.00;99.90;;;;;;5032217;28;20036;-82
2023/08/11 00:46:21;;;;;;;11.60;8.77;;;19.90;99.90;;;;;;5032654;28;20029;-82
2023/08/11 00:48:50;;;;;;;10.55;9.60;;;20.70;99.90;;;;;;5031740;28;20022;-82
2023/08/11 00:51:18;;;;;;;10.45;9.55;;;19.90;99.90;;;;;;5032578;28;20057;-82
2023/08/11 00:53:45;;;;;;;10.25;9.45;;;19.90;99.90;;;;;;5032283;28;20033;-82
2023/08/11 00:56:12;;;;;;;11.65;9.48;;;19.80;99.90;;;;;;5031549;28;20119;-82
2023/08/11 00:58:38;;;;;;;11.05;9.02;;;19.80;99.90;;;;;;5032116;28;20373;-82
2023/08/11 01:01:04;;;;;;;10.95;9.02;;;19.80;99.90;;;;;;5032473;28;20034;-82
2023/08/11 01:03:30;;;;;;;10.95;8.85;;;19.80;99.90;;;;;;5031571;28;20026;-82
2023/08/11 01:06:28;;;;;;;10.05;9.02;;;19.80;99.90;;;;;;5032294;28;20032;-82
2023/08/11 01:09:16;;;;;;;9.23;8.52;;;19.80;99.90;;;;;;5031468;28;20361;-82
2023/08/11 01:11:54;;;;;;;10.98;9.98;;;19.80;99.90;;;;;;5032157;28;20116;-82
2023/08/11 01:14:36;;;;;;;9.57;8.88;;;19.80;99.90;;;;;;5032211;28;20461;-82
2023/08/11 01:17:04;;;;;;;9.63;8.43;;;19.70;99.90;;;;;;5031465;28;20029;-82
2023/08/11 01:19:35;;;;;;;10.35;8.27;;;19.70;99.90;;;;;;5032141;28;20026;-82
2023/08/11 01:22:04;;;;;;;9.90;9.02;;;19.60;99.90;;;;;;5031580;28;20485;-82
2023/08/11 01:24:31;;;;;;;11.48;9.48;;;19.70;99.90;;;;;;5031247;28;20159;-82
2023/08/11 01:26:57;;;;;;;10.63;9.43;;;19.70;99.90;;;;;;5031889;28;20030;-82
2023/08/11 01:29:24;;;;;;;11.30;9.63;;;19.60;99.90;;;;;;5031687;28;20052;-82
2023/08/11 01:31:50;;;;;;;10.00;9.10;;;19.60;99.90;;;;;;5030824;28;20036;-82
2023/08/11 01:34:16;;;;;;;10.00;9.10;;;19.50;99.90;;;;;;5032310;28;20033;-82
2023/08/11 01:36:42;;;;;;;12.68;10.10;;;19.50;99.90;;;;;;5031266;28;20105;-82
2023/08/11 01:39:09;;;;;;;11.77;9.57;;;19.50;99.90;;;;;;5032542;28;20025;-82
2023/08/11 01:41:36;;;;;;;10.20;9.32;;;19.40;99.90;;;;;;5031769;28;20033;-82
2023/08/11 01:44:03;;;;;;;12.52;8.80;;;19.50;99.90;;;;;;5031420;28;20432;-82
2023/08/11 01:46:31;;;;;;;11.45;8.82;;;19.50;99.90;;;;;;5031587;28;20580;-82
2023/08/11 01:48:57;;;;;;;11.10;9.57;;;19.60;99.90;;;;;;5031948;28;20030;-82
2023/08/11 01:51:24;;;;;;;10.50;9.52;;;20.10;99.90;;;;;;5031481;28;20030;-82
2023/08/11 01:53:51;;;;;;;11.45;9.18;;;19.40;99.90;;;;;;5031505;28;20032;-83
2023/08/11 01:56:19;;;;;;;10.23;9.25;;;19.40;99.90;;;;;;5031893;28;20030;-81
2023/08/11 01:58:45;;;;;;;10.50;9.50;;;19.50;99.90;;;;;;5031181;28;20025;-82
2023/08/11 02:01:13;;;;;;;13.40;9.30;;;19.40;99.90;;;;;;5031902;28;20026;-82
2023/08/11 02:03:39;;;;;;;9.80;8.80;;;19.40;99.90;;;;;;5031691;28;20112;-82
2023/08/11 02:06:05;;;;;;;10.65;9.55;;;19.40;99.90;;;;;;5031165;28;20021;-82
2023/08/11 02:08:31;;;;;;;10.57;9.60;;;19.40;99.90;;;;;;5031643;28;20110;-82
2023/08/11 02:10:57;;;;;;;9.50;8.63;;;19.40;99.90;;;;;;5031641;28;20046;-82
2023/08/11 02:13:23;;;;;;;10.35;9.45;;;19.30;99.90;;;;;;5031038;28;20049;-82
2023/08/11 02:15:48;;;;;;;10.00;9.10;;;19.30;99.90;;;;;;5031330;28;20540;-82
2023/08/11 02:18:14;;;;;;;10.75;9.68;;;19.50;99.90;;;;;;5031839;28;20034;-82
2023/08/11 02:20:41;;;;;;;9.68;8.77;;;19.30;99.90;;;;;;5012922;28;20033;-82
2023/08/11 02:23:07;;;;;;;11.60;9.25;;;19.30;99.90;;;;;;5031465;28;20041;-82
2023/08/11 02:25:33;;;;;;;9.80;8.80;;;19.40;99.90;;;;;;5031300;28;20105;-82
2023/08/11 02:27:59;;;;;;;9.50;8.70;;;19.30;99.90;;;;;;5030609;28;20061;-83
2023/08/11 02:30:29;;;;;;;11.20;10.02;;;19.20;99.90;;;;;;5031412;28;20083;-81
2023/08/11 02:32:55;;;;;;;9.68;8.68;;;19.30;99.90;;;;;;5031934;28;20057;-83
2023/08/11 02:35:21;;;;;;;16.35;9.82;;;19.30;99.90;;;;;;5035417;28;20053;-83
2023/08/11 02:37:47;;;;;;;9.50;8.70;;;19.20;99.90;;;;;;5034954;28;20436;-82
2023/08/11 02:40:14;;;;;;;10.30;9.35;;;19.20;99.90;;;;;;5034428;28;20472;-82
2023/08/11 02:42:45;;;;;;;10.48;9.45;;;19.00;99.90;;;;;;5034703;28;20048;-82
2023/08/11 02:45:11;;;;;;;10.07;9.07;;;19.20;99.90;;;;;;5035393;28;20064;-82
2023/08/11 02:47:39;;;;;;;10.00;9.10;;;19.20;99.90;;;;;;5034294;28;20056;-82
2023/08/11 02:50:05;;;;;;;12.07;9.02;;;19.10;99.90;;;;;;5035367;28;20029;-82
2023/08/11 02:52:31;;;;;;;9.73;8.88;;;19.10;99.90;;;;;;5034698;28;20045;-82
2023/08/11 02:54:56;;;;;;;13.40;9.25;;;19.10;99.90;;;;;;5034002;28;20056;-82
2023/08/11 02:57:22;;;;;;;10.85;8.98;;;19.10;99.90;;;;;;5034866;28;20565;-82
2023/08/11 02:59:49;;;;;;;10.77;8.70;;;19.10;99.90;;;;;;5034589;28;20297;-82
2023/08/11 03:02:16;;;;;;;9.88;8.90;;;19.20;99.90;;;;;;5034210;28;20440;-82
2023/08/11 03:04:42;;;;;;;10.80;9.35;;;19.10;99.90;;;;;;5034510;28;20072;-82
2023/08/11 03:07:09;;;;;;;9.70;8.77;;;19.10;99.90;;;;;;5034587;28;20072;-82
2023/08/11 03:09:35;;;;;;;9.35;8.18;;;19.10;99.90;;;;;;5033696;28;20029;-81
2023/08/11 03:12:01;;;;;;;13.38;9.43;;;19.10;99.90;;;;;;5034892;28;20377;-81
2023/08/11 03:14:26;;;;;;;10.88;9.88;;;19.20;99.90;;;;;;5034721;28;20018;-81
2023/08/11 03:16:53;;;;;;;10.00;9.10;;;19.00;99.90;;;;;;5033412;28;20073;-81
2023/08/11 03:19:19;;;;;;;14.73;10.68;;;19.10;99.90;;;;;;5034701;28;20038;-81
2023/08/11 03:21:45;;;;;;;10.80;9.80;;;19.90;99.90;;;;;;5034026;28;20388;-81
2023/08/11 03:24:10;;;;;;;12.93;10.27;;;19.00;99.90;;;;;;5033363;28;20064;-81
2023/08/11 03:26:36;;;;;;;13.85;10.18;;;19.80;99.90;;;;;;5034337;28;20026;-81
2023/08/11 03:29:02;;;;;;;18.70;10.63;;;18.90;99.90;;;;;;5033677;28;20049;-83
2023/08/11 03:31:28;;;;;;;12.23;9.75;;;18.80;99.90;;;;;;5034268;28;20029;-82
2023/08/11 03:33:54;;;;;;;13.05;10.80;;;18.90;99.90;;;;;;5033939;28;20025;-82
2023/08/11 03:36:20;;;;;;;15.57;10.32;;;18.90;99.90;;;;;;5033764;28;20084;-82
2023/08/11 03:38:45;;;;;;;11.13;10.20;;;18.90;99.90;;;;;;5033704;28;20029;-82
2023/08/11 03:41:11;;;;;;;15.38;10.77;;;19.00;99.90;;;;;;5034057;28;20049;-82
2023/08/11 03:43:37;;;;;;;10.70;9.65;;;18.80;99.90;;;;;;5032454;28;20039;-82
2023/08/11 03:46:03;;;;;;;11.90;10.80;;;18.80;99.90;;;;;;5033850;28;20112;-82
2023/08/11 03:48:29;;;;;;;11.52;10.43;;;18.80;99.90;;;;;;5033706;28;20033;-82
2023/08/11 03:50:59;;;;;;;11.50;10.48;;;18.70;99.90;;;;;;5033115;28;20034;-83
2023/08/11 03:53:25;;;;;;;19.42;12.05;;;18.80;99.90;;;;;;5033815;28;20035;-83
2023/08/11 03:55:51;;;;;;;12.38;11.00;;;18.90;99.90;;;;;;5033485;28;20112;-83
2023/08/11 03:58:16;;;;;;;11.38;10.20;;;18.70;99.90;;;;;;5033052;28;20420;-83
2023/08/11 04:00:42;;;;;;;14.82;11.45;;;18.90;99.90;;;;;;5033468;28;20017;-83
2023/08/11 04:03:09;;;;;;;14.50;10.90;;;18.80;99.90;;;;;;5033770;28;20033;-83
2023/08/11 04:05:35;;;;;;;13.07;11.77;;;19.30;99.90;;;;;;5032653;28;20029;-83
2023/08/11 04:08:04;;;;;;;12.65;11.27;;;18.80;99.90;;;;;;5033366;28;20060;-83
2023/08/11 04:10:30;;;;;;;12.75;11.45;;;18.80;99.90;;;;;;5033475;28;20041;-83
2023/08/11 04:12:55;;;;;;;13.18;11.68;;;18.80;99.90;;;;;;5032444;28;20049;-82
2023/08/11 04:15:21;;;;;;;13.30;11.77;;;19.20;99.90;;;;;;5033517;28;20030;-82
2023/08/11 04:17:47;;;;;;;16.00;11.82;;;18.70;99.90;;;;;;5032970;28;20053;-82
2023/08/11 04:20:13;;;;;;;12.80;11.50;;;19.20;99.90;;;;;;5032598;28;20017;-82
2023/08/11 04:22:39;;;;;;;12.50;11.13;;;18.80;99.90;;;;;;5032783;28;20389;-82
2023/08/11 04:25:07;;;;;;;15.60;12.43;;;18.60;99.90;;;;;;5033553;28;20026;-82
2023/08/11 04:27:33;;;;;;;11.98;10.77;;;18.60;99.90;;;;;;5032234;28;20056;-82
2023/08/11 04:29:59;;;;;;;17.85;12.48;;;18.60;99.90;;;;;;5032637;28;20537;-82
2023/08/11 04:32:24;;;;;;;13.30;11.52;;;18.50;99.90;;;;;;5032586;28;20025;-82
2023/08/11 04:34:50;;;;;;;14.18;12.88;;;18.50;99.90;;;;;;5032754;28;20025;-82
2023/08/11 04:37:18;;;;;;;13.98;12.48;;;18.40;99.90;;;;;;5032921;28;20052;-82
2023/08/11 04:39:43;;;;;;;14.52;12.35;;;18.40;99.90;;;;;;5032187;28;20030;-81
2023/08/11 04:42:09;;;;;;;14.75;13.20;;;18.40;99.90;;;;;;5032960;28;20056;-81
2023/08/11 04:44:34;;;;;;;17.15;12.80;;;18.40;99.90;;;;;;5032672;28;20548;-82
2023/08/11 04:47:00;;;;;;;15.57;12.85;;;18.70;99.90;;;;;;5032219;28;20030;-82
2023/08/11 04:49:26;;;;;;;19.58;13.82;;;18.40;99.90;;;;;;5032759;28;20045;-82
2023/08/11 04:51:51;;;;;;;17.80;12.13;;;18.40;99.90;;;;;;5032445;28;20034;-82
2023/08/11 04:54:17;;;;;;;14.98;12.43;;;18.70;99.90;;;;;;5031774;28;20353;-82
2023/08/11 04:56:43;;;;;;;15.63;13.18;;;18.30;99.90;;;;;;5031694;28;20034;-82
2023/08/11 04:59:09;;;;;;;19.50;13.63;;;18.40;99.90;;;;;;5032692;28;20033;-82
2023/08/11 05:01:35;;;;;;;15.27;12.70;;;18.80;99.90;;;;;;5031269;28;20041;-82
2023/08/11 05:04:01;;;;;;;17.67;13.60;;;18.30;99.90;;;;;;5032367;28;20017;-82
2023/08/11 05:06:26;;;;;;;16.10;13.80;;;18.40;99.90;;;;;;5032474;28;20025;-81
2023/08/11 05:08:52;;;;;;;14.40;12.18;;;18.40;99.90;;;;;;5031502;28;20036;-82
2023/08/11 05:11:19;;;;;;;15.52;13.38;;;18.40;99.90;;;;;;5032806;28;20022;-82
2023/08/11 05:13:44;;;;;;;16.23;13.50;;;18.40;99.90;;;;;;5032010;28;20465;-82
2023/08/11 05:16:10;;;;;;;14.55;13.00;;;18.50;99.90;;;;;;5031586;28;20029;-81
2023/08/11 05:18:35;;;;;;;21.55;13.27;;;18.40;99.90;;;;;;5031738;28;20037;-81
2023/08/11 05:21:02;;;;;;;17.30;13.68;;;18.30;99.90;;;;;;5032119;28;20068;-82
2023/08/11 05:23:27;;;;;;;18.05;13.73;;;18.40;99.90;;;;;;5031797;28;20029;-81
2023/08/11 05:25:53;;;;;;;18.83;13.20;;;18.40;99.90;;;;;;5032039;28;20462;-81
2023/08/11 05:28:19;;;;;;;18.08;12.65;;;18.30;99.90;;;;;;5032072;28;20057;-81
2023/08/11 05:30:45;;;;;;;14.45;11.73;;;18.40;99.90;;;;;;5031380;28;20025;-81
2023/08/11 05:33:12;;;;;;;18.98;13.05;;;18.30;99.90;;;;;;5032214;28;20045;-82
2023/08/11 05:35:40;;;;;;;17.77;12.77;;;18.40;99.90;;;;;;5030918;28;20362;-81
2023/08/11 05:38:05;;;;;;;20.45;13.60;;;18.40;99.90;;;;;;5031923;28;20381;-82
2023/08/11 05:40:31;;;;;;;16.27;12.85;;;18.60;99.90;;;;;;5031738;28;20025;-81
2023/08/11 05:42:57;;;;;;;15.20;13.15;;;18.40;99.90;;;;;;5031417;28;20037;-82
2023/08/11 05:45:23;;;;;;;21.33;14.40;;;18.60;99.90;;;;;;5031922;28;20029;-82
2023/08/11 05:47:49;;;;;;;17.75;13.15;;;18.40;99.90;;;;;;5031469;28;20033;-81
2023/08/11 05:50:14;;;;;;;16.70;13.32;;;18.40;99.90;;;;;;5031092;28;20076;-82
2023/08/11 05:52:40;;;;;;;17.00;12.38;;;18.50;99.90;;;;;;5031511;28;20044;-82
2023/08/11 05:55:07;;;;;;;15.80;12.85;;;18.50;99.90;;;;;;5031665;28;20420;-82
2023/08/11 05:57:33;;;;;;;17.23;12.35;;;18.50;99.90;;;;;;5031308;28;20037;-81
2023/08/11 05:59:58;;;;;;;18.00;13.10;;;18.50;99.90;;;;;;5031308;28;20017;-82
2023/08/11 06:02:24;;;;;;;18.80;13.05;;;18.60;99.90;;;;;;5031671;28;20085;-81
2023/08/11 06:04:51;;;;;;;16.85;12.57;;;18.60;99.90;;;;;;5030277;28;20033;-81
2023/08/11 06:07:17;;;;;;;20.17;13.15;;;18.50;99.90;;;;;;5033845;28;20032;-82
2023/08/11 06:09:43;;;;;;;15.63;12.57;;;18.70;99.90;;;;;;5035836;28;20389;-81
2023/08/11 06:12:08;;;;;;;16.88;13.05;;;18.70;99.90;;;;;;5034835;28;20027;-81
2023/08/11 06:14:34;;;;;;;14.07;12.27;;;18.70;99.90;;;;;;5035066;28;20037;-81
2023/08/11 06:17:00;;;;;;;22.02;12.35;;;18.70;99.90;;;;;;5035364;28;20068;-81
2023/08/11 06:19:25;;;;;;;15.60;13.90;;;18.80;99.90;;;;;;5034607;28;20049;-81
2023/08/11 06:21:51;;;;;;;21.58;13.23;;;18.80;99.90;;;;;;5035082;28;20049;-81
2023/08/11 06:24:16;;;;;;;14.82;11.50;;;18.80;99.90;;;;;;5035572;28;20018;-81
2023/08/11 06:26:43;;;;;;;15.20;11.93;;;18.80;99.90;;;;;;5034204;28;20032;-81
2023/08/11 06:29:09;;;;;;;17.75;12.52;;;18.90;99.90;;;;;;5035266;28;20061;-81
2023/08/11 06:31:34;;;;;;;15.32;10.90;;;18.80;99.90;;;;;;5034440;28;20116;-81
2023/08/11 06:34:01;;;;;;;13.77;12.18;;;18.90;99.90;;;;;;5033916;28;20030;-81
2023/08/11 06:36:26;;;;;;;21.33;11.63;;;19.20;99.90;;;;;;5035438;28;20121;-81
2023/08/11 06:38:52;;;;;;;20.70;11.15;;;19.20;99.90;;;;;;5035028;28;20493;-81
2023/08/11 06:41:18;;;;;;;19.63;11.02;;;19.00;99.90;;;;;;5033808;28;20029;-81
2023/08/11 06:43:43;;;;;;;12.50;11.20;;;19.10;99.90;;;;;;5034506;28;20485;-81
2023/08/11 06:46:09;;;;;;;15.32;11.45;;;19.10;99.90;;;;;;5033811;28;20022;-82
2023/08/11 06:48:34;;;;;;;17.75;11.75;;;19.80;99.90;;;;;;5034516;28;20059;-81
2023/08/11 06:51:00;;;;;;;12.80;10.32;;;19.20;99.90;;;;;;5034730;28;20441;-82
2023/08/11 06:53:26;;;;;;;15.07;12.30;;;19.20;99.90;;;;;;5034262;28;20029;-81
2023/08/11 06:55:52;;;;;;;12.02;10.77;;;19.30;99.90;;;;;;5034088;28;20029;-81
2023/08/11 06:58:17;;;;;;;12.57;11.27;;;19.30;99.90;;;;;;5034828;28;20037;-81
2023/08/11 07:00:43;;;;;;;12.93;11.27;;;19.70;99.90;;;;;;5033497;28;20096;-81
2023/08/11 07:03:09;;;;;;;16.33;11.90;;;19.40;99.90;;;;;;5034106;28;20514;-81
2023/08/11 07:05:34;;;;;;;13.85;10.82;;;19.80;99.90;;;;;;5034486;28;20032;-81
2023/08/11 07:08:01;;;;;;;17.30;11.15;;;19.50;99.90;;;;;;5033915;28;20029;-81
2023/08/11 07:10:26;;;;;;;16.98;11.27;;;19.40;99.90;;;;;;5034484;28;20022;-81
2023/08/11 07:12:52;;;;;;;16.98;10.60;;;19.50;99.90;;;;;;5033956;28;20461;-81
2023/08/11 07:15:17;;;;;;;17.25;11.05;;;19.60;99.90;;;;;;5033814;28;20045;-81
2023/08/11 07:17:43;;;;;;;19.35;11.30;;;19.60;99.90;;;;;;5033936;28;20025;-81
2023/08/11 07:20:09;;;;;;;23.23;11.27;;;19.60;99.90;;;;;;5033866;28;20053;-81
2023/08/11 07:22:35;;;;;;;26.38;11.95;;;19.70;99.90;;;;;;5033451;28;20056;-82
2023/08/11 07:25:00;;;;;;;28.80;11.80;;;20.30;99.90;;;;;;5034143;28;20048;-81
2023/08/11 07:27:26;;;;;;;24.95;11.82;;;19.60;99.90;;;;;;5034430;28;20021;-81
2023/08/11 07:29:52;;;;;;;15.00;10.10;;;19.80;99.90;;;;;;5033037;28;20068;-81
2023/08/11 07:32:17;;;;;;;10.50;9.40;;;19.80;99.90;;;;;;5034100;28;20477;-81
2023/08/11 07:34:43;;;;;;;11.45;9.70;;;20.10;99.90;;;;;;5033679;28;20083;-81
2023/08/11 07:37:08;;;;;;;9.85;8.73;;;20.00;99.90;;;;;;5033488;28;20029;-82
2023/08/11 07:39:34;;;;;;;11.52;9.00;;;20.00;99.90;;;;;;5033875;28;20133;-81
2023/08/11 07:42:02;;;;;;;17.52;9.30;;;20.80;99.90;;;;;;5033668;28;20132;-81
2023/08/11 07:44:32;;;;;;;12.40;9.63;;;20.10;99.90;;;;;;5032950;28;20477;-81
2023/08/11 07:46:58;;;;;;;15.18;9.13;;;20.30;99.90;;;;;;5033573;28;20048;-82
2023/08/11 07:49:27;;;;;;;13.18;8.35;;;20.10;99.90;;;;;;5033349;28;20025;-82
2023/08/11 07:51:53;;;;;;;12.32;8.45;;;20.20;99.90;;;;;;5033509;28;20040;-82
2023/08/11 07:54:19;;;;;;;13.45;9.10;;;20.30;99.90;;;;;;5033623;28;20025;-81
2023/08/11 07:56:44;;;;;;;11.25;8.40;;;20.80;99.90;;;;;;5032447;28;20477;-81
2023/08/11 07:59:11;;;;;;;13.18;7.35;;;20.30;99.90;;;;;;5033338;28;20021;-82
2023/08/11 08:01:37;;;;;;;12.48;8.25;;;20.40;99.90;;;;;;5033494;28;20030;-81
2023/08/11 08:04:03;;;;;;;11.43;8.30;;;20.40;99.90;;;;;;5032801;28;20465;-82
2023/08/11 08:06:32;;;;;;;10.07;8.07;;;20.60;99.90;;;;;;5033468;28;20159;-81
2023/08/11 08:08:58;;;;;;;9.43;6.63;;;20.50;99.90;;;;;;5033410;28;20099;-82
2023/08/11 08:11:24;;;;;;;13.43;7.45;;;20.60;99.90;;;;;;5032770;28;20029;-82
2023/08/11 08:13:50;;;;;;;12.75;8.02;;;20.60;99.90;;;;;;5033078;28;20072;-82
2023/08/11 08:16:16;;;;;;;8.40;6.28;;;20.90;99.90;;;;;;5033422;28;20032;-82
2023/08/11 08:18:41;;;;;;;9.60;7.30;;;20.70;99.90;;;;;;5032447;28;20423;-81
2023/08/11 08:21:07;;;;;;;8.90;6.22;;;20.80;99.90;;;;;;5032956;28;20479;-82
2023/08/11 08:23:32;;;;;;;8.63;5.55;;;20.70;99.90;;;;;;5032863;28;20040;-82
2023/08/11 08:25:58;;;;;;;5.90;5.38;;;20.90;99.90;;;;;;5032257;28;20385;-82
2023/08/11 08:28:24;;;;;;;8.63;6.50;;;21.00;99.90;;;;;;5033092;28;20025;-82
2023/08/11 08:30:50;;;;;;;8.02;7.22;;;21.10;99.90;;;;;;5031628;28;20049;-82
2023/08/11 08:33:16;;;;;;;13.25;5.90;;;21.20;99.90;;;;;;5032706;28;20037;-82
2023/08/11 08:35:41;;;;;;;10.15;6.70;;;21.70;99.90;;;;;;5032779;28;20409;-82
2023/08/11 08:38:07;;;;;;;7.38;6.68;;;21.30;99.90;;;;;;5032861;28;20025;-82
2023/08/11 08:40:37;;;;;;;7.15;6.45;;;21.30;99.90;;;;;;5032250;28;20124;-82
2023/08/11 08:43:06;;;;;;;8.27;6.38;;;21.40;99.90;;;;;;5032778;28;20033;-83
2023/08/11 08:45:33;;;;;;;9.23;6.07;;;21.40;99.90;;;;;;5032383;28;20457;-82
2023/08/11 08:47:59;;;;;;;7.20;5.95;;;21.50;99.90;;;;;;5032553;28;20057;-83
2023/08/11 08:50:25;;;;;;;11.27;8.00;;;21.40;99.90;;;;;;5032768;28;20068;-82
2023/08/11 08:52:53;;;;;;;9.77;7.03;;;21.40;99.90;;;;;;5031423;28;20100;-82
2023/08/11 08:55:19;;;;;;;8.02;6.90;;;21.50;99.90;;;;;;5032568;28;20025;-83
2023/08/11 08:57:46;;;;;;;12.30;7.28;;;21.50;99.90;;;;;;5032489;28;20027;-83
2023/08/11 09:00:12;;;;;;;9.75;7.45;;;21.50;99.90;;;;;;5031607;28;20039;-82
2023/08/11 09:02:39;;;;;;;14.00;6.88;;;21.50;99.90;;;;;;5031891;28;20033;-82
2023/08/11 09:05:06;;;;;;;11.95;7.18;;;21.50;99.90;;;;;;5032609;28;20037;-82
2023/08/11 09:07:32;;;;;;;11.82;7.00;;;21.60;99.90;;;;;;5031453;28;20092;-82
2023/08/11 09:09:58;;;;;;;8.45;7.07;;;21.80;99.90;;;;;;5031979;28;20444;-83
2023/08/11 09:12:27;;;;;;;9.80;6.63;;;21.70;99.90;;;;;;5032334;28;20030;-82
2023/08/11 09:14:53;;;;;;;9.85;6.43;;;21.60;99.90;;;;;;5031266;28;20022;-82
2023/08/11 09:17:18;;;;;;;13.10;7.68;;;21.60;99.90;;;;;;5032167;28;20030;-82
2023/08/11 09:19:52;;;;;;;10.20;6.80;;;21.60;99.90;;;;;;5031764;28;20021;-82
2023/08/11 09:22:26;;;;;;;9.32;6.45;;;21.70;99.90;;;;;;5031550;28;20038;-82
2023/08/11 09:24:53;;;;;;;8.80;6.35;;;21.70;99.90;;;;;;5032277;28;20026;-83
2023/08/11 09:27:20;;;;;;;10.32;7.68;;;21.70;99.90;;;;;;5032204;28;20051;-82
2023/08/11 09:29:47;;;;;;;10.88;6.45;;;21.80;99.90;;;;;;5030733;28;20041;-82
2023/08/11 09:32:12;;;;;;;8.38;6.63;;;21.80;99.90;;;;;;5032012;28;20109;-83
2023/08/11 09:34:39;;;;;;;8.63;6.07;;;21.80;99.90;;;;;;5031614;28;20517;-82
2023/08/11 09:37:05;;;;;;;9.73;6.75;;;21.90;99.90;;;;;;5031006;28;20029;-82
2023/08/11 09:39:31;;;;;;;12.50;6.90;;;22.00;99.90;;;;;;5031778;28;20080;-82
2023/08/11 09:41:56;;;;;;;12.20;6.40;;;22.00;99.90;;;;;;5030699;28;20496;-83
2023/08/11 09:44:22;;;;;;;7.15;6.45;;;22.10;99.90;;;;;;5031935;28;20112;-82
2023/08/11 09:46:48;;;;;;;7.97;5.85;;;22.10;99.90;;;;;;5031408;28;20025;-80
2023/08/11 09:49:14;;;;;;;6.85;5.93;;;22.10;99.90;;;;;;5030954;28;20084;-82
2023/08/11 09:51:41;;;;;;;8.60;5.82;;;22.10;99.90;;;;;;5031191;28;20025;-82
2023/08/11 09:54:10;;;;;;;7.60;5.72;;;22.20;99.90;;;;;;5031673;28;20111;-82
2023/08/11 09:56:38;;;;;;;6.95;5.15;;;22.30;99.90;;;;;;5030757;28;20072;-81
2023/08/11 09:59:12;;;;;;;5.70;4.80;;;22.30;99.90;;;;;;5031575;28;20028;-81
2023/08/11 10:01:39;;;;;;;7.68;4.95;;;22.40;99.90;;;;;;5031234;28;20096;-81
2023/08/11 10:04:10;;;;;;;8.15;4.80;;;22.40;99.90;;;;;;5030853;28;20076;-81
2023/08/11 10:06:38;;;;;;;10.32;5.47;;;22.50;99.90;;;;;;5031321;28;20461;-81
2023/08/11 10:09:06;;;;;;;7.75;5.32;;;22.60;99.90;;;;;;5031648;28;20147;-82
2023/08/11 10:11:34;;;;;;;5.95;4.68;;;22.60;99.90;;;;;;5030778;28;20056;-81
2023/08/11 10:14:03;;;;;;;9.23;5.50;;;22.60;99.90;;;;;;5031480;28;20385;-81
2023/08/11 10:16:29;;;;;;;7.70;5.35;;;22.70;99.90;;;;;;5031471;28;20088;-81
2023/08/11 10:18:57;;;;;;;9.32;5.55;;;22.60;99.90;;;;;;5030777;28;20136;-83
2023/08/11 10:21:25;;;;;;;10.48;4.90;;;22.70;99.90;;;;;;5031798;28;20393;-83
2023/08/11 10:23:51;;;;;;;9.05;5.57;;;22.70;99.90;;;;;;5031226;28;20523;-82
2023/08/11 10:26:17;;;;;;;8.20;5.07;;;22.80;99.90;;;;;;5030753;28;20116;-82
2023/08/11 10:28:44;;;;;;;8.80;6.25;;;22.80;99.90;;;;;;5031019;28;20149;-81
2023/08/11 10:31:09;;;;;;;8.15;5.40;;;22.80;99.90;;;;;;5030705;28;20041;-81
2023/08/11 10:33:35;;;;;;;7.28;6.65;;;22.80;99.90;;;;;;5031419;28;20040;-81
2023/08/11 10:36:01;;;;;;;9.23;6.05;;;22.90;99.90;;;;;;5031697;28;20030;-81
2023/08/11 10:38:32;;;;;;;8.45;5.70;;;22.90;99.90;;;;;;5030715;28;20022;-81
2023/08/11 10:41:05;;;;;;;9.50;5.97;;;23.00;99.90;;;;;;5031136;28;20449;-81
2023/08/11 10:43:33;;;;;;;9.70;5.50;;;23.00;99.90;;;;;;5031183;28;20054;-81
2023/08/11 10:46:33;;;;;;;6.72;5.30;;;23.00;99.90;;;;;;5030446;28;20021;-81
2023/08/11 10:49:08;;;;;;;9.77;4.80;;;23.10;99.90;;;;;;5030454;28;20094;-80
2023/08/11 10:51:37;;;;;;;4.95;4.45;;;23.10;99.90;;;;;;5031084;28;20469;-81
2023/08/11 10:54:17;;;;;;;6.43;5.20;;;23.20;99.90;;;;;;5031832;28;20029;-82
2023/08/11 10:56:44;;;;;;;;;;;23.20;99.90;;;;;;5034867;28;20466;-81
2023/08/11 10:59:24;;;;;;;15.35;5.65;;;23.30;99.90;;;;;;5034519;28;19908;-81
2023/08/11 11:01:52;;;;;;;5.43;4.90;;;23.30;99.90;;;;;;5034018;28;20108;-81
2023/08/11 11:04:20;;;;;;;7.75;4.88;;;23.40;99.90;;;;;;5034633;28;20033;-81
2023/08/11 11:06:47;;;;;;;6.45;4.80;;;23.50;99.90;;;;;;5033578;28;20242;-81
2023/08/11 11:09:14;;;;;;;6.25;5.32;;;23.50;99.90;;;;;;5034772;28;20026;-81
2023/08/11 11:11:40;;;;;;;6.05;3.90;;;23.50;99.90;;;;;;5034367;28;20381;-81
2023/08/11 11:14:07;;;;;;;5.07;4.13;;;23.60;99.90;;;;;;5033803;28;20025;-81
2023/08/11 11:16:34;;;;;;;5.85;3.30;;;23.60;99.90;;;;;;5034168;28;20048;-81
2023/08/11 11:19:01;;;;;;;5.88;4.10;;;23.60;99.90;;;;;;5034330;28;20068;-80
2023/08/11 11:21:27;;;;;;;8.00;4.18;;;23.80;99.90;;;;;;5033965;28;20026;-81
2023/08/11 11:23:53;;;;;;;7.15;5.47;;;23.80;99.90;;;;;;5034239;28;20392;-83
2023/08/11 11:26:29;;;;;;;10.00;4.47;;;23.80;99.90;;;;;;5034452;28;20456;-81
2023/08/11 11:28:57;;;;;;;7.75;3.47;;;23.80;99.90;;;;;;5033344;28;20548;-81
2023/08/11 11:31:25;;;;;;;3.85;3.47;;;23.90;99.90;;;;;;5034319;28;20040;-81
2023/08/11 11:33:51;;;;;;;7.60;3.75;;;24.00;99.90;;;;;;5033665;28;20030;-81
2023/08/11 11:36:21;;;;;;;4.45;3.78;;;23.90;99.90;;;;;;5033246;28;20018;-81
2023/08/11 11:38:47;;;;;;;5.50;3.50;;;24.20;99.90;;;;;;5034031;28;20030;-82
2023/08/11 11:41:15;;;;;;;11.30;3.78;;;24.30;99.90;;;;;;5033909;28;20079;-82
2023/08/11 11:43:42;;;;;;;6.32;3.92;;;24.40;99.90;;;;;;5032993;28;20106;-82
2023/08/11 11:46:14;;;;;;;6.32;3.92;;;24.80;99.90;;;;;;5033793;28;20333;-82
2023/08/11 11:48:50;;;;;;;5.32;3.55;;;24.80;99.90;;;;;;5032998;28;20431;-82
2023/08/11 11:51:17;;;;;;;5.78;3.50;;;24.70;99.90;;;;;;5033693;28;20027;-82
2023/08/11 11:53:43;;;;;;;11.38;4.25;;;24.70;99.90;;;;;;5033231;28;20035;-82
2023/08/11 11:56:14;;;;;;;4.55;4.10;;;24.80;99.90;;;;;;5032789;28;20029;-82
2023/08/11 11:58:40;;;;;;;13.48;3.72;;;24.70;99.90;;;;;;5033268;28;20397;-82
2023/08/11 12:01:20;;;;;;;5.40;3.40;;;24.70;99.90;;;;;;5033666;28;20021;-82
2023/08/11 12:03:47;;;;;;;3.58;3.25;;;24.70;99.90;;;;;;5032648;28;20567;-80
2023/08/11 12:06:14;;;;;;;5.70;3.80;;;24.60;99.90;;;;;;5033291;28;20029;-81
2023/08/11 12:08:41;;;;;;;5.85;3.47;;;24.60;99.90;;;;;;5033295;28;20035;-81
2023/08/11 12:11:11;;;;;;;4.40;3.63;;;24.50;99.90;;;;;;5032857;28;20444;-81
2023/08/11 12:13:41;;;;;;;3.93;3.63;;;24.50;99.90;;;;;;5033169;28;20037;-81
2023/08/11 12:16:08;;;;;;;8.50;5.07;;;24.60;99.90;;;;;;5033546;28;20087;-81
2023/08/11 12:18:34;;;;;;;8.75;4.20;;;24.60;99.90;;;;;;5032538;28;20022;-83
2023/08/11 12:21:01;;;;;;;6.60;5.22;;;24.70;99.90;;;;;;5033261;28;20068;-81
2023/08/11 12:23:27;;;;;;;8.80;6.10;;;24.80;99.90;;;;;;5033105;28;20547;-83
2023/08/11 12:25:53;;;;;;;12.38;5.70;;;24.80;99.90;;;;;;5032009;28;20025;-83
2023/08/11 12:28:19;;;;;;;6.38;5.43;;;24.80;99.90;;;;;;5033083;28;20423;-81
2023/08/11 12:30:45;;;;;;;11.10;4.63;;;24.90;99.90;;;;;;5032079;28;20053;-82
2023/08/11 12:33:10;;;;;;;12.43;6.25;;;24.80;99.90;;;;;;5032887;28;20095;-82
2023/08/11 12:35:36;;;;;;;9.73;5.43;;;24.80;99.90;;;;;;5032769;28;20029;-82
2023/08/11 12:38:03;;;;;;;6.93;6.30;;;24.90;99.90;;;;;;5032039;28;20024;-82